Date,TemperatureHighF,TemperatureAvgF,TemperatureLowF,DewpointHighF,DewpointAvgF,DewpointLowF,HumidityHigh,HumidityAvg,HumidityLow,PressureMaxIn,PressureMinIn,WindSpeedMaxMPH,WindSpeedAvgMPH,GustSpeedMaxMPH,PrecipitationSumIn
2013-1-1,46.0,17.8,26.0,-99.9,-99.9,-99.9,0,0,100,0.00,40.00,15,-470,0,0.00
2013-1-2,51.0,28.5,27.0,-99.9,-99.9,-99.9,21,1,21,0.00,40.00,7,-606,0,0.00
2013-1-3,49.0,24.5,28.0,-99.9,-99.9,-99.9,0,0,100,0.00,40.00,8,-689,0,0.00
2013-1-4,50.0,26.1,29.0,-99.9,-99.9,-99.9,0,0,100,0.00,40.00,7,-665,0,0.00
2013-1-5,49.0,25.7,30.0,-99.9,-99.9,-99.9,0,0,100,0.00,40.00,7,-561,0,0.00
2013-1-6,50.0,27.6,39.0,-99.9,-99.9,-99.9,0,0,100,0.00,40.00,6,-599,0,0.00
2013-1-7,59.0,9.9,39.0,-99.9,-99.9,-99.9,0,0,100,0.00,40.00,20,-182,0,0.00
2013-1-8,58.0,26.5,39.0,-99.9,-99.9,-99.9,0,0,100,0.00,40.00,16,-512,0,0.00
2013-1-9,58.0,29.1,39.0,-99.9,-99.9,-99.9,0,0,100,0.00,40.00,5,-596,0,0.00
2013-1-10,49.0,1.4,36.0,-99.9,-99.9,-99.9,13,0,13,0.00,40.00,29,-21,0,0.00
2013-1-11,41.0,9.9,29.0,-99.9,-99.9,-99.9,25,0,18,0.00,40.00,19,-225,0,0.00
2013-1-12,41.0,5.4,27.0,-99.9,-99.9,-99.9,0,0,100,0.00,40.00,17,-152,0,0.00
2013-1-13,37.0,10.7,20.0,-99.9,-99.9,-99.9,14,1,14,0.00,40.00,20,-371,0,0.00
2013-1-14,34.0,2.8,21.0,-99.9,-99.9,-99.9,0,0,100,0.00,40.00,24,-75,0,0.00
2013-1-15,41.0,20.8,19.0,-99.9,-99.9,-99.9,0,0,100,0.00,40.00,5,-599,0,0.00
2013-1-16,53.0,29.5,26.0,-99.9,-99.9,-99.9,0,0,100,0.00,40.00,1,-724,0,0.00
2013-1-17,60.0,33.8,31.0,-99.9,-99.9,-99.9,0,0,100,0.00,40.00,7,-748,0,0.00
2013-1-18,60.0,33.6,34.0,-99.9,-99.9,-99.9,0,0,100,0.00,40.00,5,-715,0,0.00
2013-1-19,63.0,26.5,36.0,-99.9,-99.9,-99.9,18,0,18,0.00,40.00,8,-546,0,0.00
2013-1-20,64.0,38.5,37.0,-99.9,-99.9,-99.9,0,0,100,0.00,40.00,9,-798,0,0.00
2013-1-21,65.0,37.7,36.0,-99.9,-99.9,-99.9,15,0,15,0.00,40.00,9,-797,0,0.00
2013-1-22,66.0,30.8,39.0,-99.9,-99.9,-99.9,0,0,100,0.00,40.00,9,-602,0,0.00
2013-1-23,64.0,37.0,47.0,-99.9,-99.9,-99.9,0,0,100,0.00,40.00,7,-661,0,0.00
2013-1-24,55.0,32.6,48.0,-99.9,-99.9,-99.9,0,0,100,0.00,40.00,9,-553,0,0.00
2013-1-25,61.0,44.0,54.0,-99.9,-99.9,-99.9,0,0,100,0.00,40.00,1,-761,0,0.00
2013-1-26,49.0,36.4,48.0,-99.9,-99.9,-99.9,0,0,100,0.00,40.00,2,-749,0,0.00
2013-1-27,56.0,7.9,42.0,-99.9,-99.9,-99.9,0,0,100,0.00,40.00,19,-131,0,0.00
2013-1-28,45.0,4.3,39.0,-99.9,-99.9,-99.9,23,1,22,0.00,40.00,21,-26,0,0.00
2013-1-29,55.0,6.8,36.0,-99.9,-99.9,-99.9,0,0,100,0.00,40.00,15,-110,0,0.00
2013-1-30,57.0,19.6,37.0,-99.9,-99.9,-99.9,0,0,100,0.00,40.00,15,-346,0,0.00
2013-1-31,61.0,21.2,43.0,-99.9,-99.9,-99.9,0,0,100,0.00,40.00,2,-378,0,0.00
2013-2-1,63.0,29.9,44.0,-99.9,-99.9,-99.9,25,0,25,0.00,40.00,8,-543,0,0.00
2013-2-2,64.0,49.7,45.0,-99.9,-99.9,-99.9,0,0,100,0.00,40.00,4,-888,0,0.00
2013-2-3,66.0,34.9,49.0,-99.9,-99.9,-99.9,0,0,100,0.00,40.00,9,-509,0,0.00
2013-2-4,69.0,31.9,44.0,-99.9,-99.9,-99.9,0,0,100,0.00,40.00,2,-558,0,0.00
2013-2-5,66.0,31.5,46.0,-99.9,-99.9,-99.9,0,0,100,0.00,40.00,4,-558,0,0.00
2013-2-6,62.0,14.0,46.0,-99.9,-99.9,-99.9,21,0,21,0.00,40.00,14,-200,0,0.00
2013-2-7,65.0,22.1,43.0,-99.9,-99.9,-99.9,0,0,100,0.00,40.00,8,-412,0,0.00
2013-2-8,47.0,6.1,34.0,-99.9,-99.9,-99.9,28,0,28,0.00,40.00,32,-112,0,0.00
2013-2-9,49.0,15.4,35.0,-99.9,-99.9,-99.9,25,0,25,0.00,40.00,16,-309,0,0.00
2013-2-10,49.0,11.2,34.0,-99.9,-99.9,-99.9,0,0,100,0.00,40.00,16,-199,0,0.00
2013-2-11,47.0,2.3,38.0,-99.9,-99.9,-99.9,0,0,100,0.00,40.00,18,-37,0,0.00
2013-2-12,54.0,24.7,31.0,-99.9,-99.9,-99.9,0,0,100,0.00,40.00,9,-530,0,0.00
2013-2-13,62.0,32.8,35.0,-99.9,-99.9,-99.9,0,0,100,0.00,40.00,15,-659,0,0.00
2013-2-14,54.0,12.1,41.0,-99.9,-99.9,-99.9,0,0,100,0.00,40.00,16,-243,0,0.00
2013-2-15,66.0,31.0,40.0,-99.9,-99.9,-99.9,0,0,100,0.00,40.00,9,-575,0,0.00
2013-2-16,64.0,42.6,41.0,-99.9,-99.9,-99.9,0,0,100,0.00,40.00,2,-770,0,0.00
2013-2-17,69.0,24.6,41.0,-99.9,-99.9,-99.9,18,1,18,0.00,40.00,11,-444,0,0.00
2013-2-18,56.0,16.7,41.0,-99.9,-99.9,-99.9,15,0,15,0.00,40.00,10,-283,0,0.00
2013-2-19,60.0,18.6,39.0,-99.9,-99.9,-99.9,0,0,100,0.00,40.00,21,-349,0,0.00
2013-2-20,51.0,5.8,39.0,-99.9,-99.9,-99.9,48,1,41,0.00,40.00,18,-102,0,0.00
2013-2-21,52.0,17.2,34.0,-99.9,-99.9,-99.9,0,0,100,0.00,40.00,12,-422,0,0.00
2013-2-22,56.0,23.5,34.0,-99.9,-99.9,-99.9,0,0,100,0.00,40.00,14,-504,0,0.00
2013-2-23,59.0,5.5,36.0,-99.9,-99.9,-99.9,0,0,100,0.00,40.00,32,-106,0,0.00
2013-2-24,52.0,2.2,39.0,-99.9,-99.9,-99.9,0,0,100,0.00,40.00,26,-27,0,0.00
2013-2-25,54.0,23.9,34.0,-99.9,-99.9,-99.9,0,0,100,0.00,40.00,9,-504,0,0.00
2013-2-26,51.0,8.5,38.0,-99.9,-99.9,-99.9,0,0,100,0.00,40.00,24,-163,0,0.00
2013-2-27,53.0,15.2,31.0,-99.9,-99.9,-99.9,20,1,3,0.00,40.00,17,-367,0,0.00
2013-2-28,64.0,40.1,36.0,-99.9,-99.9,-99.9,0,0,100,0.00,40.00,9,-762,0,0.00
2013-3-1,73.0,41.2,43.0,-99.9,-99.9,-99.9,0,0,100,0.00,40.00,6,-700,0,0.00
2013-3-2,73.0,30.8,50.0,-99.9,-99.9,-99.9,0,0,100,0.00,40.00,8,-498,0,0.00
2013-3-3,71.0,12.6,57.0,-99.9,-99.9,-99.9,0,0,100,0.00,40.00,35,-148,0,0.00
2013-3-4,66.0,13.3,50.0,-99.9,-99.9,-99.9,22,0,22,0.00,40.00,20,-216,0,0.00
2013-3-5,64.0,21.8,44.0,-99.9,-99.9,-99.9,0,0,100,0.00,40.00,12,-326,0,0.00
2013-3-6,63.0,9.4,49.0,-99.9,-99.9,-99.9,19,0,19,0.00,40.00,24,-118,0,0.00
2013-3-7,54.0,11.2,44.0,-99.9,-99.9,-99.9,20,1,14,0.00,40.00,19,-188,0,0.00
2013-3-8,49.0,13.2,46.0,-99.9,-99.9,-99.9,51,2,51,0.00,40.00,16,-277,0,0.00
2013-3-9,55.0,2.5,46.0,-99.9,-99.9,-99.9,0,0,100,0.00,40.00,20,-39,0,0.00
2013-3-10,64.0,7.2,49.0,-99.9,-99.9,-99.9,0,0,100,0.00,40.00,18,-89,0,0.00
2013-3-11,73.0,35.2,44.0,-99.9,-99.9,-99.9,25,1,25,0.00,40.00,8,-531,0,0.00
2013-3-12,75.0,32.8,49.0,-99.9,-99.9,-99.9,0,0,100,0.00,40.00,6,-504,0,0.00
2013-3-13,80.0,20.6,59.0,-99.9,-99.9,-99.9,25,1,25,0.00,40.00,8,-294,0,0.00
2013-3-14,84.0,26.8,60.0,-99.9,-99.9,-99.9,0,0,100,0.00,40.00,9,-310,0,0.00
2013-3-15,85.0,27.5,64.0,-99.9,-99.9,-99.9,0,0,100,0.00,40.00,12,-384,0,0.00
2013-3-16,82.0,30.6,61.0,-99.9,-99.9,-99.9,0,0,100,0.00,40.00,17,-421,0,0.00
2013-3-17,78.0,11.1,63.0,-99.9,-99.9,-99.9,0,0,100,0.00,40.00,34,-148,0,0.00
2013-3-18,74.0,8.7,61.0,-99.9,-99.9,-99.9,0,0,100,0.00,40.00,18,-59,0,0.00
2013-3-19,77.0,33.8,61.0,-99.9,-99.9,-99.9,0,0,100,0.00,40.00,2,-477,0,0.00
2013-3-20,72.0,5.2,60.0,-99.9,-99.9,-99.9,0,0,100,0.00,40.00,21,-71,0,0.00
2013-3-21,69.0,21.5,54.0,-99.9,-99.9,-99.9,23,1,3,0.00,40.00,16,-346,0,0.00
2013-3-22,71.0,5.4,57.0,-99.9,-99.9,-99.9,0,0,100,0.00,40.00,19,-67,0,0.00
2013-3-23,59.0,19.5,41.0,-99.9,-99.9,-99.9,0,0,100,0.00,40.00,26,-303,0,0.00
2013-3-24,70.0,31.3,39.0,-99.9,-99.9,-99.9,0,0,100,0.00,40.00,1,-536,0,0.00
2013-3-25,66.0,23.2,46.0,-99.9,-99.9,-99.9,0,0,100,0.00,40.00,4,-406,0,0.00
2013-3-26,76.0,16.9,57.0,-99.9,-99.9,-99.9,0,0,100,0.00,40.00,27,-203,0,0.00
2013-3-27,73.0,28.3,53.0,-99.9,-99.9,-99.9,0,0,100,0.00,40.00,24,-402,0,0.00
2013-3-28,74.0,19.2,54.0,-99.9,-99.9,-99.9,0,0,100,0.00,40.00,24,-264,0,0.00
2013-3-29,81.0,39.4,57.0,-99.9,-99.9,-99.9,0,0,100,0.00,40.00,8,-530,0,0.00
2013-3-30,82.0,37.4,60.0,-99.9,-99.9,-99.9,0,0,100,0.00,40.00,6,-530,0,0.00
2013-3-31,77.0,24.5,56.0,-99.9,-99.9,-99.9,17,0,17,0.00,40.00,24,-336,0,0.00
2013-4-1,71.0,20.8,56.0,-99.9,-99.9,-99.9,19,0,19,0.00,40.00,29,-270,0,0.00
2013-4-2,76.0,13.9,55.0,-99.9,-99.9,-99.9,14,0,14,0.00,40.00,18,-172,0,0.00
2013-4-3,81.0,40.8,55.0,-99.9,-99.9,-99.9,0,0,100,0.00,40.00,7,-577,0,0.00
2013-4-4,82.0,26.1,59.0,-99.9,-99.9,-99.9,0,0,100,0.00,40.00,18,-353,0,0.00
2013-4-5,78.0,20.0,59.0,-99.9,-99.9,-99.9,0,0,100,0.00,40.00,20,-234,0,0.00
2013-4-6,81.0,39.3,59.0,-99.9,-99.9,-99.9,0,0,100,0.00,40.00,7,-475,0,0.00
2013-4-7,81.0,28.1,57.0,-99.9,-99.9,-99.9,0,0,100,0.00,40.00,31,-401,0,0.00
2013-4-8,66.0,6.3,50.0,-99.9,-99.9,-99.9,36,1,19,0.00,40.00,30,-100,0,0.00
2013-4-9,62.0,1.8,59.0,-99.9,-99.9,-99.9,0,0,100,0.00,40.00,28,-12,0,0.00
2013-4-10,69.0,9.5,59.0,-99.9,-99.9,-99.9,0,0,100,0.00,40.00,21,-129,0,0.00
2013-4-11,77.0,47.2,52.0,-99.9,-99.9,-99.9,0,0,100,0.00,40.00,5,-678,0,0.00
2013-4-12,81.0,42.4,56.0,-99.9,-99.9,-99.9,0,0,100,0.00,40.00,5,-588,0,0.00
2013-4-13,82.0,20.4,63.0,-99.9,-99.9,-99.9,0,0,100,0.00,40.00,35,-280,0,0.00
2013-4-14,82.0,29.3,61.0,-99.9,-99.9,-99.9,0,0,100,0.00,40.00,20,-406,0,0.00
2013-4-15,75.0,23.8,55.0,-99.9,-99.9,-99.9,0,0,100,0.00,40.00,35,-308,0,0.00
2013-4-16,58.0,3.3,51.0,-99.9,-99.9,-99.9,0,0,100,0.00,40.00,36,-29,0,0.00
2013-4-17,60.0,2.6,45.0,-99.9,-99.9,-99.9,0,0,100,0.00,40.00,24,-37,0,0.00
2013-4-18,64.0,9.3,48.0,-99.9,-99.9,-99.9,0,0,100,0.00,40.00,15,-134,0,0.00
2013-4-19,76.0,35.8,44.0,-99.9,-99.9,-99.9,0,0,100,0.00,40.00,8,-540,0,0.00
2013-4-20,78.0,22.0,56.0,-99.9,-99.9,-99.9,0,0,100,0.00,40.00,18,-292,0,0.00
2013-4-21,87.0,17.6,55.0,-99.9,-99.9,-99.9,0,0,100,0.00,40.00,16,-232,0,0.00
2013-4-22,89.0,34.9,64.0,-99.9,-99.9,-99.9,0,0,100,0.00,40.00,20,-403,0,0.00
2013-4-23,74.0,15.7,56.0,-99.9,-99.9,-99.9,0,0,100,0.00,40.00,29,-220,0,0.00
2013-4-24,74.0,22.6,51.0,-99.9,-99.9,-99.9,0,0,100,0.00,40.00,9,-307,0,0.00
2013-4-25,80.0,35.9,56.0,-99.9,-99.9,-99.9,0,0,100,0.00,40.00,19,-506,0,0.00
2013-4-26,85.0,41.1,57.0,-99.9,-99.9,-99.9,0,0,100,0.00,40.00,21,-561,0,0.00
2013-4-27,91.0,51.3,60.0,-99.9,-99.9,-99.9,0,0,100,0.00,40.00,8,-634,0,0.00
2013-4-28,91.0,39.1,64.0,-99.9,-99.9,-99.9,0,0,100,0.00,40.00,12,-478,0,0.00
2013-4-29,95.0,33.3,71.0,-99.9,-99.9,-99.9,0,0,100,0.00,40.00,24,-334,0,0.00
2013-4-30,91.0,24.5,68.0,-99.9,-99.9,-99.9,0,0,100,0.00,40.00,23,-261,0,0.00
2013-5-1,77.0,7.5,58.0,-99.9,-99.9,-99.9,0,0,100,0.00,40.00,28,-87,0,0.00
2013-5-2,79.0,18.1,56.0,-99.9,-99.9,-99.9,0,0,100,0.00,40.00,19,-223,0,0.00
2013-5-3,85.0,45.7,54.0,-99.9,-99.9,-99.9,0,0,100,0.00,40.00,5,-575,0,0.00
2013-5-4,85.0,25.9,74.0,-99.9,-99.9,-99.9,0,0,100,0.00,40.00,23,-282,0,0.00
2013-5-5,77.0,30.7,61.0,-99.9,-99.9,-99.9,0,0,100,0.00,40.00,20,-425,0,0.00
2013-5-6,76.0,23.5,57.0,-99.9,-99.9,-99.9,22,0,22,0.00,40.00,20,-343,0,0.00
2013-5-7,68.0,31.5,53.0,-99.9,-99.9,-99.9,38,0,38,0.00,40.00,23,-535,0,0.00
2013-5-8,69.0,16.8,54.0,-99.9,-99.9,-99.9,27,1,27,0.00,40.00,16,-277,0,0.00
2013-5-9,76.0,18.5,56.0,-99.9,-99.9,-99.9,0,0,100,0.00,40.00,16,-272,0,0.00
2013-5-10,87.0,32.4,62.0,-99.9,-99.9,-99.9,0,0,100,0.00,40.00,9,-443,0,0.00
2013-5-11,92.0,39.0,64.0,-99.9,-99.9,-99.9,0,0,100,0.00,40.00,9,-439,0,0.00
2013-5-12,94.0,38.6,71.0,-99.9,-99.9,-99.9,0,0,100,0.00,40.00,10,-448,0,0.00
2013-5-13,98.0,21.8,74.0,-99.9,-99.9,-99.9,0,0,100,0.00,40.00,13,-217,0,0.00
2013-5-14,96.0,25.4,77.0,-99.9,-99.9,-99.9,0,0,100,0.00,40.00,21,-255,0,0.00
2013-5-15,93.0,21.1,65.0,-99.9,-99.9,-99.9,0,0,100,0.00,40.00,31,-249,0,0.00
2013-5-16,91.0,25.2,68.0,-99.9,-99.9,-99.9,12,0,7,0.00,40.00,26,-302,0,0.00
2013-5-17,82.0,13.1,73.0,-99.9,-99.9,-99.9,0,0,100,0.00,40.00,23,-136,0,0.00
2013-5-18,85.0,44.8,62.0,-99.9,-99.9,-99.9,0,0,100,0.00,40.00,20,-554,0,0.00
2013-5-19,84.0,19.9,65.0,-99.9,-99.9,-99.9,0,0,100,0.00,40.00,23,-254,0,0.00
2013-5-20,85.0,26.4,64.0,-99.9,-99.9,-99.9,0,0,100,0.00,40.00,24,-321,0,0.00
2013-5-21,89.0,24.0,61.0,-99.9,-99.9,-99.9,12,0,12,0.00,40.00,21,-296,0,0.00
2013-5-22,88.0,9.0,72.0,-99.9,-99.9,-99.9,0,0,100,0.00,40.00,37,-91,0,0.00
2013-5-23,83.0,17.4,59.0,-99.9,-99.9,-99.9,0,0,100,0.00,40.00,36,-192,0,0.00
2013-5-24,88.0,27.9,59.0,-99.9,-99.9,-99.9,0,0,100,0.00,40.00,19,-372,0,0.00
2013-5-25,86.0,17.0,66.0,-99.9,-99.9,-99.9,0,0,100,0.00,40.00,20,-216,0,0.00
2013-5-26,86.0,17.4,64.0,-99.9,-99.9,-99.9,0,0,100,0.00,40.00,24,-219,0,0.00
2013-5-27,88.0,32.9,62.0,-99.9,-99.9,-99.9,0,0,100,0.00,40.00,20,-423,0,0.00
2013-5-28,89.0,25.9,67.0,-99.9,-99.9,-99.9,0,0,100,0.00,40.00,21,-318,0,0.00
2013-5-29,91.0,29.2,64.0,-99.9,-99.9,-99.9,0,0,100,0.00,40.00,17,-360,0,0.00
2013-5-30,94.0,21.1,69.0,-99.9,-99.9,-99.9,0,0,100,0.00,40.00,20,-216,0,0.00
2013-5-31,95.0,45.0,71.0,-99.9,-99.9,-99.9,0,0,100,0.00,40.00,20,-488,0,0.00
2013-6-1,94.0,52.8,69.0,-99.9,-99.9,-99.9,0,0,100,0.00,40.00,9,-604,0,0.00
2013-6-2,101.0,23.3,74.0,-99.9,-99.9,-99.9,0,0,100,0.00,40.00,22,-243,0,0.00
2013-6-3,99.0,27.3,74.0,-99.9,-99.9,-99.9,0,0,100,0.00,40.00,31,-314,0,0.00
2013-6-4,99.0,32.7,72.0,-99.9,-99.9,-99.9,0,0,100,0.00,40.00,18,-371,0,0.00
2013-6-5,103.0,53.2,74.0,-99.9,-99.9,-99.9,0,0,100,0.00,40.00,14,-590,0,0.00
2013-6-6,104.0,58.8,80.0,-99.9,-99.9,-99.9,0,0,100,0.00,40.00,19,-583,0,0.00
2013-6-7,106.0,54.3,78.0,-99.9,-99.9,-99.9,0,0,100,0.00,40.00,10,-542,0,0.00
2013-6-8,109.0,61.7,83.0,-99.9,-99.9,-99.9,0,0,100,0.00,40.00,24,-606,0,0.00
2013-6-9,106.0,41.0,80.0,-99.9,-99.9,-99.9,0,0,100,0.00,40.00,24,-388,0,0.00
2013-6-10,94.0,11.9,79.0,-99.9,-99.9,-99.9,0,0,100,0.00,40.00,25,-120,0,0.00
2013-6-11,91.0,54.3,71.0,-99.9,-99.9,-99.9,0,0,100,0.00,40.00,8,-673,0,0.00
2013-6-12,101.0,15.5,84.0,-99.9,-99.9,-99.9,0,0,100,0.00,40.00,21,-136,0,0.00
2013-6-13,96.0,13.9,76.0,-99.9,-99.9,-99.9,0,0,100,0.00,40.00,25,-155,0,0.00
2013-6-14,96.0,28.0,69.0,-99.9,-99.9,-99.9,0,0,100,0.00,40.00,25,-277,0,0.00
2013-6-15,96.0,36.8,71.0,-99.9,-99.9,-99.9,0,0,100,0.00,40.00,17,-329,0,0.00
2013-6-16,92.0,23.8,69.0,-99.9,-99.9,-99.9,0,0,100,0.00,40.00,16,-273,0,0.00
2013-6-17,96.0,31.4,72.0,-99.9,-99.9,-99.9,0,0,100,0.00,40.00,19,-361,0,0.00
2013-6-18,96.0,18.5,74.0,-99.9,-99.9,-99.9,8,0,8,0.00,40.00,21,-184,0,0.00
2013-6-19,91.0,12.6,74.0,-99.9,-99.9,-99.9,11,0,11,0.00,40.00,27,-131,0,0.00
2013-6-20,88.0,51.7,69.0,-99.9,-99.9,-99.9,0,0,100,0.00,40.00,7,-606,0,0.00
2013-6-22,93.0,22.1,80.0,-99.9,-99.9,-99.9,0,0,100,0.00,40.00,12,-260,0,0.00
2013-6-23,94.0,28.1,71.0,-99.9,-99.9,-99.9,0,0,100,0.00,40.00,17,-321,0,0.00
2013-6-24,86.0,16.0,73.0,-99.9,-99.9,-99.9,0,0,100,0.00,40.00,23,-151,0,0.00
2013-6-25,94.0,21.1,68.0,-99.9,-99.9,-99.9,0,0,100,0.00,40.00,15,-249,0,0.00
2013-6-26,98.0,14.2,82.0,-99.9,-99.9,-99.9,0,0,100,0.00,40.00,19,-87,0,0.00
2013-6-27,102.0,37.1,81.0,-99.9,-99.9,-99.9,0,0,100,0.00,40.00,8,-393,0,0.00
2013-6-28,109.0,59.7,81.0,-99.9,-99.9,-99.9,0,0,100,0.00,40.00,11,-492,0,0.00
2013-6-29,111.0,40.6,86.0,-99.9,-99.9,-99.9,0,0,100,0.00,40.00,17,-370,0,0.00
2013-6-30,113.0,39.8,88.0,-99.9,-99.9,-99.9,5,0,5,0.00,40.00,17,-333,0,0.00
2013-7-1,111.0,26.8,93.0,-99.9,-99.9,-99.9,0,0,100,0.00,40.00,15,-244,0,0.00
2013-7-2,111.0,29.4,89.0,-99.9,-99.9,-99.9,0,0,100,0.00,40.00,25,-288,0,0.00
2013-7-3,111.0,29.4,89.0,-99.9,-99.9,-99.9,0,0,100,0.00,40.00,15,-284,0,0.00
2013-7-4,108.0,18.0,94.0,-99.9,-99.9,-99.9,0,0,100,0.00,40.00,18,-159,0,0.00
2013-7-5,105.0,21.3,84.0,-99.9,-99.9,-99.9,0,0,100,0.00,40.00,20,-221,0,0.00
2013-7-6,98.0,28.3,82.0,-99.9,-99.9,-99.9,0,0,100,0.00,40.00,19,-281,0,0.00
2013-7-7,99.0,45.9,84.0,-99.9,-99.9,-99.9,15,0,15,0.00,40.00,7,-394,0,0.00
2013-7-8,103.0,35.0,79.0,-99.9,-99.9,-99.9,6,0,6,0.00,40.00,21,-361,0,0.00
2013-7-9,103.0,16.5,85.0,-99.9,-99.9,-99.9,0,0,100,0.00,40.00,20,-142,0,0.00
2013-7-10,102.0,20.4,85.0,-99.9,-99.9,-99.9,0,0,100,0.00,40.00,19,-217,0,0.00
2013-7-11,86.0,11.6,80.0,-99.9,-99.9,-99.9,28,2,19,0.00,40.00,16,-135,0,0.00
2013-7-12,91.0,61.9,74.0,-99.9,-99.9,-99.9,0,0,100,0.00,40.00,5,-658,0,0.00
2013-7-13,100.0,49.1,76.0,-99.9,-99.9,-99.9,0,0,100,0.00,40.00,10,-505,0,0.00
2013-7-14,102.0,51.2,81.0,-99.9,-99.9,-99.9,0,0,100,0.00,40.00,10,-555,0,0.00
2013-7-15,103.0,29.1,83.0,-99.9,-99.9,-99.9,0,0,100,0.00,40.00,14,-310,0,0.00
2013-7-16,104.0,26.6,79.0,-99.9,-99.9,-99.9,0,0,100,0.00,40.00,18,-215,0,0.00
2013-7-17,101.0,29.3,79.0,-99.9,-99.9,-99.9,0,0,100,0.00,40.00,16,-306,0,0.00
2013-7-18,106.0,41.3,94.0,-99.9,-99.9,-99.9,0,0,100,0.00,40.00,6,-390,0,0.00
2013-7-19,106.0,41.9,83.0,-99.9,-99.9,-99.9,25,0,25,0.00,40.00,17,-334,0,0.00
2013-7-20,103.0,31.1,80.0,-99.9,-99.9,-99.9,33,0,33,0.00,40.00,33,-311,0,0.00
2013-7-21,88.0,26.4,76.0,-99.9,-99.9,-99.9,0,0,100,0.00,40.00,21,-319,0,0.00
2013-7-22,94.0,43.4,74.0,-99.9,-99.9,-99.9,0,0,100,0.00,40.00,13,-506,0,0.00
2013-7-23,93.0,25.0,75.0,-99.9,-99.9,-99.9,16,1,16,0.00,40.00,17,-285,0,0.00
2013-7-24,104.0,49.7,82.0,-99.9,-99.9,-99.9,14,0,14,0.00,40.00,5,-527,0,0.00
2013-7-25,103.0,19.6,84.0,-99.9,-99.9,-99.9,14,1,12,0.00,40.00,12,-213,0,0.00
2013-7-26,101.0,25.9,84.0,-99.9,-99.9,-99.9,21,1,21,0.00,40.00,30,-254,0,0.00
2013-7-27,87.0,12.2,78.0,-99.9,-99.9,-99.9,44,1,44,0.00,40.00,16,-145,0,0.00
2013-7-28,91.0,23.9,74.0,-99.9,-99.9,-99.9,0,0,100,0.00,40.00,25,-216,0,0.00
2013-7-29,95.0,15.6,81.0,-99.9,-99.9,-99.9,0,0,100,0.00,40.00,13,-137,0,0.00
2013-7-30,96.0,29.5,75.0,-99.9,-99.9,-99.9,0,0,100,0.00,40.00,18,-330,0,0.00
2013-7-31,103.0,27.7,79.0,-99.9,-99.9,-99.9,0,0,100,0.00,40.00,18,-313,0,0.00
2013-8-1,96.0,5.7,86.0,-99.9,-99.9,-99.9,8,0,8,0.00,40.00,24,-55,0,0.00
2013-8-2,99.0,34.6,72.0,-99.9,-99.9,-99.9,0,0,100,0.00,40.00,23,-372,0,0.00
2013-8-3,92.0,23.6,73.0,-99.9,-99.9,-99.9,0,0,100,0.00,40.00,19,-289,0,0.00
2013-8-4,101.0,40.1,76.0,-99.9,-99.9,-99.9,0,0,100,0.00,40.00,17,-442,0,0.00
2013-8-5,99.0,28.4,80.0,-99.9,-99.9,-99.9,0,0,100,0.00,40.00,15,-275,0,0.00
2013-8-6,101.0,27.0,76.0,-99.9,-99.9,-99.9,0,0,100,0.00,40.00,22,-206,0,0.00
2013-8-7,94.0,17.6,74.0,-99.9,-99.9,-99.9,0,0,100,0.00,40.00,23,-188,0,0.00
2013-8-8,91.0,19.8,72.0,-99.9,-99.9,-99.9,0,0,100,0.00,40.00,14,-244,0,0.00
2013-8-9,92.0,29.8,70.0,-99.9,-99.9,-99.9,0,0,100,0.00,40.00,21,-324,0,0.00
2013-8-10,91.0,19.5,73.0,-99.9,-99.9,-99.9,0,0,100,0.00,40.00,20,-232,0,0.00
2013-8-11,98.0,33.3,72.0,-99.9,-99.9,-99.9,0,0,100,0.00,40.00,10,-380,0,0.00
2013-8-12,94.0,24.3,74.0,-99.9,-99.9,-99.9,0,0,100,0.00,40.00,18,-282,0,0.00
2013-8-13,98.0,24.7,74.0,-99.9,-99.9,-99.9,0,0,100,0.00,40.00,9,-261,0,0.00
2013-8-14,99.0,17.2,74.0,-99.9,-99.9,-99.9,0,0,100,0.00,40.00,9,-204,0,0.00
2013-8-15,102.0,31.7,80.0,-99.9,-99.9,-99.9,0,0,100,0.00,40.00,9,-352,0,0.00
2013-8-16,104.0,23.4,84.0,-99.9,-99.9,-99.9,15,0,15,0.00,40.00,13,-221,0,0.00
2013-8-17,99.0,36.8,81.0,-99.9,-99.9,-99.9,0,0,100,0.00,40.00,16,-392,0,0.00
2013-8-18,96.0,21.4,78.0,-99.9,-99.9,-99.9,40,2,16,0.00,40.00,21,-173,0,0.00
2013-8-19,91.0,27.1,74.0,-99.9,-99.9,-99.9,45,4,45,0.00,40.00,9,-312,0,0.00
2013-8-20,81.0,16.8,80.0,-99.9,-99.9,-99.9,0,0,100,0.00,40.00,15,-203,0,0.00
2013-8-21,93.0,8.3,91.0,-99.9,-99.9,-99.9,0,0,100,0.00,40.00,17,-84,0,0.00
2013-8-22,99.0,18.8,88.0,-99.9,-99.9,-99.9,0,0,100,0.00,40.00,29,-185,0,0.00
2013-8-23,89.0,14.9,78.0,-99.9,-99.9,-99.9,18,0,18,0.00,40.00,23,-173,0,0.00
2013-8-24,87.0,17.2,79.0,-99.9,-99.9,-99.9,20,1,20,0.00,40.00,19,-140,0,0.00
2013-8-25,85.0,22.2,70.0,-99.9,-99.9,-99.9,50,6,50,0.00,40.00,26,-282,0,0.00
2013-8-26,74.0,62.0,69.0,-99.9,-99.9,-99.9,0,0,100,0.00,40.00,0,-874,0,0.00
2013-8-27,85.0,54.8,74.0,-99.9,-99.9,-99.9,0,0,100,0.00,40.00,1,-666,0,0.00
2013-8-28,93.0,27.7,82.0,-99.9,-99.9,-99.9,0,0,100,0.00,40.00,16,-287,0,0.00
2013-8-29,95.0,23.3,81.0,-99.9,-99.9,-99.9,28,3,28,0.00,40.00,13,-267,0,0.00
2013-8-30,89.0,32.4,74.0,-99.9,-99.9,-99.9,0,0,100,0.00,40.00,11,-397,0,0.00
2013-8-31,87.0,15.4,79.0,-99.9,-99.9,-99.9,0,0,100,0.00,40.00,3,-182,0,0.00
2013-9-1,89.0,30.9,80.0,-99.9,-99.9,-99.9,52,3,52,0.00,40.00,16,-357,0,0.00
2013-9-2,93.0,25.5,76.0,-99.9,-99.9,-99.9,0,0,100,0.00,40.00,12,-292,0,0.00
2013-9-3,91.0,29.6,74.0,-99.9,-99.9,-99.9,0,0,100,0.00,40.00,11,-348,0,0.00
2013-9-4,98.0,20.9,79.0,-99.9,-99.9,-99.9,36,1,36,0.00,40.00,13,-217,0,0.00
2013-9-5,95.0,23.1,73.0,-99.9,-99.9,-99.9,15,1,15,0.00,40.00,5,-253,0,0.00
2013-9-6,94.0,12.8,79.0,-99.9,-99.9,-99.9,36,1,36,0.00,40.00,15,-154,0,0.00
2013-9-7,84.0,69.4,75.0,-99.9,-99.9,-99.9,0,0,100,0.00,40.00,1,-888,0,0.03
2013-9-8,84.0,20.9,73.0,-99.9,-99.9,-99.9,0,0,100,0.00,40.00,1,-277,0,0.00
2013-9-9,91.0,35.8,71.0,-99.9,-99.9,-99.9,0,0,100,0.00,40.00,47,-418,0,0.00
2013-9-10,71.0,9.6,70.0,-99.9,-99.9,-99.9,0,0,100,0.00,40.00,2,-135,0,0.00
2013-9-16,95.0,25.0,81.0,-99.9,-99.9,-99.9,12,0,12,0.00,40.00,14,-192,0,0.00
2013-9-17,86.0,2.2,80.0,-99.9,-99.9,-99.9,0,0,100,0.00,40.00,22,-18,0,0.00
2013-9-18,79.0,24.4,69.0,-99.9,-99.9,-99.9,0,0,100,0.00,40.00,19,-190,0,0.00
2013-9-19,90.0,16.1,69.0,-99.9,-99.9,-99.9,0,0,100,0.00,40.00,11,-139,0,0.00
2013-9-20,91.0,11.8,70.0,-99.9,-99.9,-99.9,7,0,7,0.00,40.00,18,-137,0,0.00
2013-9-21,84.0,10.4,68.0,-99.9,-99.9,-99.9,0,0,100,0.00,40.00,35,-124,0,0.00
2013-9-22,79.0,6.8,63.0,-99.9,-99.9,-99.9,0,0,100,0.00,40.00,39,-80,0,0.00
2013-9-23,83.0,26.0,66.0,-99.9,-99.9,-99.9,0,0,100,0.00,40.00,8,-332,0,0.00
2013-9-24,84.0,12.0,66.0,-99.9,-99.9,-99.9,8,0,8,0.00,40.00,17,-152,0,0.00
2013-9-25,73.0,3.2,69.0,-99.9,-99.9,-99.9,0,0,100,0.00,40.00,21,-36,0,0.00
2013-9-26,67.0,2.4,58.0,-99.9,-99.9,-99.9,11,0,11,0.00,40.00,21,-30,0,0.00
2013-9-27,66.0,4.5,61.0,-99.9,-99.9,-99.9,0,0,100,0.00,40.00,17,-62,0,0.00
2013-9-28,78.0,22.5,53.0,-99.9,-99.9,-99.9,7,0,7,0.00,40.00,3,-347,0,0.00
2013-9-29,81.0,22.5,61.0,-99.9,-99.9,-99.9,0,0,100,0.00,40.00,8,-309,0,0.00
2013-9-30,86.0,29.9,59.0,-99.9,-99.9,-99.9,0,0,100,0.00,40.00,1,-418,0,0.00
2013-10-1,86.0,25.7,76.0,-99.9,-99.9,-99.9,0,0,100,0.00,40.00,9,-198,0,0.00
2013-10-2,82.0,18.8,64.0,-99.9,-99.9,-99.9,0,0,100,0.00,40.00,16,-241,0,0.00
2013-10-3,79.0,18.7,61.0,-99.9,-99.9,-99.9,0,0,100,0.00,40.00,30,-260,0,0.00
2013-10-4,65.0,1.9,55.0,-99.9,-99.9,-99.9,0,0,100,0.00,40.00,33,-17,0,0.00
2013-10-5,74.0,11.4,54.0,-99.9,-99.9,-99.9,0,0,100,0.00,40.00,11,-165,0,0.00
2013-10-6,80.0,31.9,53.0,-99.9,-99.9,-99.9,0,0,100,0.00,40.00,11,-478,0,0.00
2013-10-7,80.0,33.9,59.0,-99.9,-99.9,-99.9,0,0,100,0.00,40.00,11,-477,0,0.00
2013-10-8,81.0,12.9,60.0,-99.9,-99.9,-99.9,0,0,100,0.00,40.00,17,-173,0,0.00
2013-10-9,63.0,2.4,53.0,-99.9,-99.9,-99.9,33,1,16,0.00,40.00,16,-33,0,0.00
2013-10-10,62.0,36.1,54.0,-99.9,-99.9,-99.9,0,0,100,0.00,40.00,1,-642,0,0.00
2013-10-11,70.0,29.2,59.0,-99.9,-99.9,-99.9,0,0,100,0.00,40.00,6,-455,0,0.00
2013-10-12,72.0,11.5,53.0,-99.9,-99.9,-99.9,0,0,100,0.00,40.00,8,-171,0,0.00
2013-10-13,71.0,6.3,57.0,-99.9,-99.9,-99.9,0,0,100,0.00,40.00,25,-96,0,0.00
2013-10-14,68.0,0.7,68.0,-99.9,-99.9,-99.9,0,0,100,0.00,40.00,17,-1,0,0.00
2013-10-15,61.0,1.4,55.0,-99.9,-99.9,-99.9,0,0,100,0.00,40.00,20,-15,0,0.00
2013-10-16,71.0,13.8,53.0,-99.9,-99.9,-99.9,0,0,100,0.00,40.00,14,-214,0,0.00
2013-10-17,74.0,44.1,50.0,-99.9,-99.9,-99.9,13,0,13,0.00,40.00,4,-682,0,0.00
2013-10-18,77.0,24.8,52.0,-99.9,-99.9,-99.9,0,0,100,0.00,40.00,8,-312,0,0.00
2013-10-19,77.0,18.2,58.0,-99.9,-99.9,-99.9,0,0,100,0.00,40.00,9,-263,0,0.00
2013-10-20,79.0,27.3,55.0,-99.9,-99.9,-99.9,0,0,100,0.00,40.00,9,-416,0,0.00
2013-10-21,81.0,25.7,56.0,-99.9,-99.9,-99.9,0,0,100,0.00,40.00,9,-373,0,0.00
2013-10-22,80.0,12.5,58.0,-99.9,-99.9,-99.9,0,0,100,0.00,40.00,9,-162,0,0.00
2013-10-23,79.0,12.5,61.0,-99.9,-99.9,-99.9,0,0,100,0.00,40.00,9,-150,0,0.00
2013-10-24,81.0,17.8,61.0,-99.9,-99.9,-99.9,0,0,100,0.00,40.00,9,-240,0,0.00
2013-10-25,79.0,22.7,62.0,-99.9,-99.9,-99.9,0,0,100,0.00,40.00,9,-321,0,0.00
2013-10-26,80.0,9.4,62.0,-99.9,-99.9,-99.9,0,0,100,0.00,40.00,10,-103,0,0.00
2013-10-27,76.0,3.3,61.0,-99.9,-99.9,-99.9,0,0,100,0.00,40.00,20,-33,0,0.00
2013-10-28,-200.0,0.0,200.0,-99.9,-99.9,-99.9,22,0,22,0.00,40.00,40,20,0,0.00
2013-10-29,60.0,6.8,44.0,-99.9,-99.9,-99.9,0,0,100,0.00,40.00,24,-112,0,0.00
2013-10-30,64.0,18.2,45.0,-99.9,-99.9,-99.9,35,1,35,0.00,40.00,7,-344,0,0.00
2013-10-31,67.0,27.6,46.0,-99.9,-99.9,-99.9,0,0,100,0.00,40.00,6,-460,0,0.00
2013-11-1,71.0,34.4,50.0,-99.9,-99.9,-99.9,0,0,100,0.00,40.00,7,-491,0,0.00
2013-11-2,74.0,21.0,52.0,-99.9,-99.9,-99.9,17,0,17,0.00,40.00,9,-313,0,0.00
2013-11-3,71.0,36.2,48.0,-99.9,-99.9,-99.9,0,0,100,0.00,40.00,1,-593,0,0.00
2013-11-4,56.0,20.1,49.0,-99.9,-99.9,-99.9,17,1,17,0.00,40.00,15,-374,0,0.00
2013-11-5,54.0,6.1,42.0,-99.9,-99.9,-99.9,0,0,100,0.00,40.00,33,-77,0,0.00
2013-11-6,67.0,26.2,54.0,-99.9,-99.9,-99.9,0,0,100,0.00,40.00,3,-434,0,0.00
2013-11-7,68.0,11.9,47.0,-99.9,-99.9,-99.9,0,0,100,0.00,40.00,6,-201,0,0.00
2013-11-8,70.0,14.1,49.0,-99.9,-99.9,-99.9,0,0,100,0.00,40.00,8,-204,0,0.00
2013-11-9,71.0,13.6,51.0,-99.9,-99.9,-99.9,0,0,100,0.00,40.00,8,-219,0,0.00
2013-11-10,75.0,12.5,59.0,-99.9,-99.9,-99.9,0,0,100,0.00,40.00,9,-176,0,0.00
2013-11-11,77.0,17.9,52.0,-99.9,-99.9,-99.9,0,0,100,0.00,40.00,10,-271,0,0.00
2013-11-12,78.0,40.7,61.0,-99.9,-99.9,-99.9,0,0,100,0.00,40.00,5,-576,0,0.00
2013-11-13,75.0,27.3,57.0,-99.9,-99.9,-99.9,0,0,100,0.00,40.00,11,-410,0,0.00
2013-11-14,72.0,40.4,54.0,-99.9,-99.9,-99.9,0,0,100,0.00,40.00,12,-636,0,0.00
2013-11-15,68.0,27.4,53.0,-99.9,-99.9,-99.9,0,0,100,0.00,40.00,14,-273,0,0.00
2013-11-16,66.0,19.3,47.0,-99.9,-99.9,-99.9,0,0,100,0.00,40.00,13,-325,0,0.00
2013-11-17,64.0,19.2,46.0,-99.9,-99.9,-99.9,0,0,100,0.00,40.00,9,-284,0,0.00
2013-11-18,64.0,21.8,49.0,-99.9,-99.9,-99.9,0,0,100,0.00,40.00,7,-375,0,0.00
2013-11-19,62.0,40.2,49.0,-99.9,-99.9,-99.9,0,0,100,0.00,40.00,9,-742,0,0.00
2013-11-20,63.0,41.1,49.0,-99.9,-99.9,-99.9,0,0,100,0.00,40.00,1,-730,0,0.00
2013-11-21,56.0,23.6,44.0,-99.9,-99.9,-99.9,0,0,100,0.00,40.00,11,-389,0,0.00
2013-11-22,-200.0,0.0,200.0,-99.9,-99.9,-99.9,0,0,100,0.00,40.00,17,10,0,0.00
2013-11-23,46.0,4.5,43.0,-99.9,-99.9,-99.9,0,0,100,0.00,40.00,11,-96,0,0.00
2013-11-24,55.0,27.8,41.0,-99.9,-99.9,-99.9,29,7,29,0.00,40.00,1,-614,0,0.00
2013-11-25,55.0,41.8,45.0,-99.9,-99.9,-99.9,0,0,100,0.00,40.00,0,-832,0,0.00
2013-11-26,64.0,15.4,44.0,-99.9,-99.9,-99.9,16,1,16,0.00,40.00,8,-198,0,0.00
2013-11-27,60.0,28.5,46.0,-99.9,-99.9,-99.9,0,0,100,0.00,40.00,6,-486,0,0.00
2013-11-28,60.0,25.6,44.0,-99.9,-99.9,-99.9,0,0,100,0.00,40.00,6,-461,0,0.00
2013-11-29,61.0,8.0,51.0,-99.9,-99.9,-99.9,34,3,34,0.00,40.00,7,-135,0,0.00
2013-11-30,60.0,19.4,43.0,-99.9,-99.9,-99.9,32,2,32,0.00,40.00,9,-344,0,0.00
2013-12-1,64.0,35.6,49.0,-99.9,-99.9,-99.9,0,0,100,0.00,40.00,3,-589,0,0.00
2013-12-2,65.0,40.5,46.0,-99.9,-99.9,-99.9,35,5,35,0.00,40.00,1,-730,0,0.00
2013-12-3,65.0,3.5,43.0,-99.9,-99.9,-99.9,0,0,100,0.00,40.00,28,-55,0,0.00
2013-12-4,39.0,3.5,28.0,-99.9,-99.9,-99.9,45,2,15,0.00,40.00,22,-78,0,0.00
2013-12-5,40.0,25.7,24.0,-99.9,-99.9,-99.9,0,0,100,0.00,40.00,1,-768,0,0.00
2013-12-6,40.0,17.3,31.0,-99.9,-99.9,-99.9,0,0,100,0.00,40.00,2,-369,0,0.00
2013-12-7,43.0,3.3,27.0,-99.9,-99.9,-99.9,46,3,22,0.00,40.00,24,-75,0,0.00
2013-12-8,38.0,5.0,29.0,-99.9,-99.9,-99.9,23,1,23,0.00,40.00,19,-143,0,0.00
2013-12-9,37.0,2.8,27.0,-99.9,-99.9,-99.9,14,0,14,0.00,40.00,21,-82,0,0.00
2013-12-10,46.0,30.8,22.0,-99.9,-99.9,-99.9,0,0,100,0.00,40.00,0,-948,0,0.00
2013-12-11,52.0,34.3,29.0,-99.9,-99.9,-99.9,0,0,100,0.00,40.00,1,-654,0,0.00
2013-12-12,58.0,37.7,36.0,-99.9,-99.9,-99.9,0,0,100,0.00,40.00,1,-740,0,0.00
2013-12-13,58.0,25.0,37.0,-99.9,-99.9,-99.9,0,0,100,0.00,40.00,13,-450,0,0.00
2013-12-14,51.0,7.4,40.0,-99.9,-99.9,-99.9,0,0,100,0.00,40.00,16,-154,0,0.00
2013-12-15,65.0,46.6,38.0,-99.9,-99.9,-99.9,0,0,100,0.00,40.00,1,-938,0,0.00
2013-12-16,67.0,51.5,47.0,-99.9,-99.9,-99.9,0,0,100,0.00,40.00,0,-902,0,0.00
2013-12-17,69.0,37.1,47.0,-99.9,-99.9,-99.9,0,0,100,0.00,40.00,7,-659,0,0.00
2013-12-18,59.0,35.5,47.0,-99.9,-99.9,-99.9,0,0,100,0.00,40.00,3,-605,0,0.00
2013-12-19,54.0,9.4,44.0,-99.9,-99.9,-99.9,0,0,100,0.00,40.00,13,-194,0,0.00
2013-12-22,59.0,22.8,43.0,-99.9,-99.9,-99.9,0,0,100,0.00,40.00,8,-445,0,0.00
2013-12-23,63.0,29.6,40.0,-99.9,-99.9,-99.9,0,0,100,0.00,40.00,5,-564,0,0.00
2013-12-24,65.0,29.9,41.0,-99.9,-99.9,-99.9,0,0,100,0.00,40.00,16,-504,0,0.00
2013-12-25,59.0,11.0,39.0,-99.9,-99.9,-99.9,0,0,100,0.00,40.00,9,-242,0,0.00
2013-12-26,64.0,33.6,38.0,-99.9,-99.9,-99.9,0,0,100,0.00,40.00,2,-660,0,0.00
2013-12-27,61.0,28.6,42.0,-99.9,-99.9,-99.9,0,0,100,0.00,40.00,7,-585,0,0.00
2013-12-28,60.0,25.1,44.0,-99.9,-99.9,-99.9,0,0,100,0.00,40.00,16,-487,0,0.00
2013-12-29,56.0,5.4,41.0,-99.9,-99.9,-99.9,0,0,100,0.00,40.00,26,-103,0,0.00
2013-12-30,61.0,37.5,39.0,-99.9,-99.9,-99.9,0,0,100,0.00,40.00,4,-749,0,0.00
2013-12-31,61.0,39.6,39.0,-99.9,-99.9,-99.9,0,0,100,0.00,40.00,1,-789,0,0.00
2014-1-1,66.0,25.6,41.0,-99.9,-99.9,-99.9,0,0,100,0.00,40.00,8,-508,0,0.00
2014-1-2,64.0,31.0,46.0,-99.9,-99.9,-99.9,0,0,100,0.00,40.00,9,-553,0,0.00